Time;durP1;ratioP1;P1;durP2;ratioP2;P2;SDS_P1;SDS_P2;PMS_P1;PMS_P2;Temp;Humidity;BMP_temperature;BMP_pressure;BME280_temperature;BME280_humidity;BME280_pressure;Samples;Min_cycle;Max_cycle;Signal;HPM_P1;HPM_P2
2023/08/04 00:00:22;;;;;;;0.10;0.10;;;;;;;;;;5127948;27;20047;-48
2023/08/04 00:02:48;;;;;;;0.20;0.20;;;;;;;;;;5128181;28;20054;-50
2023/08/04 00:05:13;;;;;;;0.10;0.10;;;;;;;;;;5127637;28;20130;-50
2023/08/04 00:07:42;;;;;;;0.10;0.10;;;;;;;;;;5127453;28;20139;-48
2023/08/04 00:10:08;;;;;;;0.10;0.10;;;;;;;;;;5128443;28;20054;-51
2023/08/04 00:12:34;;;;;;;0.20;0.20;;;;;;;;;;5128124;28;20043;-49
2023/08/04 00:15:00;;;;;;;0.20;0.20;;;;;;;;;;5127726;28;20487;-46
2023/08/04 00:17:26;;;;;;;0.17;0.17;;;;;;;;;;5128294;28;20077;-48
2023/08/04 00:19:52;;;;;;;0.10;0.10;;;;;;;;;;5123499;27;20415;-49
2023/08/04 00:22:17;;;;;;;0.20;0.20;;;;;;;;;;5119226;27;20086;-47
2023/08/04 00:24:43;;;;;;;0.20;0.20;;;;;;;;;;5127299;28;20051;-47
2023/08/04 00:27:08;;;;;;;0.10;0.10;;;;;;;;;;5127730;28;20051;-50
2023/08/04 00:29:34;;;;;;;0.17;0.17;;;;;;;;;;5128326;28;20483;-47
2023/08/04 00:32:00;;;;;;;0.10;0.10;;;;;;;;;;5128146;28;20043;-48
2023/08/04 00:34:26;;;;;;;0.10;0.10;;;;;;;;;;5127408;28;20399;-50
2023/08/04 00:36:51;;;;;;;0.10;0.10;;;;;;;;;;5126530;28;20051;-48
2023/08/04 00:39:17;;;;;;;0.10;0.10;;;;;;;;;;5126361;28;20111;-48
2023/08/04 00:41:43;;;;;;;0.20;0.20;;;;;;;;;;5128215;27;20047;-52
2023/08/04 00:44:10;;;;;;;0.10;0.10;;;;;;;;;;5130794;28;20134;-51
2023/08/04 00:46:36;;;;;;;0.10;0.10;;;;;;;;;;5131574;28;20478;-51
2023/08/04 00:49:02;;;;;;;0.10;0.10;;;;;;;;;;5113036;28;20089;-51
2023/08/04 00:51:29;;;;;;;0.20;0.20;;;;;;;;;;5131123;28;20415;-50
2023/08/04 00:53:55;;;;;;;0.10;0.10;;;;;;;;;;5130826;28;20050;-48
2023/08/04 00:56:21;;;;;;;0.15;0.15;;;;;;;;;;5131252;28;20047;-51
2023/08/04 00:58:46;;;;;;;0.20;0.20;;;;;;;;;;5131204;28;20491;-50
2023/08/04 01:01:12;;;;;;;0.10;0.10;;;;;;;;;;5130561;28;20054;-50
2023/08/04 01:03:38;;;;;;;0.10;0.10;;;;;;;;;;5130299;28;20133;-50
2023/08/04 01:06:10;;;;;;;0.30;0.30;;;;;;;;;;5130794;28;20047;-50
2023/08/04 01:08:38;;;;;;;0.10;0.10;;;;;;;;;;5130718;28;20047;-49
2023/08/04 01:11:08;;;;;;;0.10;0.10;;;;;;;;;;5129939;28;20050;-47
2023/08/04 01:13:33;;;;;;;0.10;0.10;;;;;;;;;;5130527;28;20043;-50
2023/08/04 01:16:00;;;;;;;0.17;0.17;;;;;;;;;;5130434;28;20134;-49
2023/08/04 01:18:26;;;;;;;0.10;0.10;;;;;;;;;;5130410;27;20039;-51
2023/08/04 01:20:51;;;;;;;0.10;0.10;;;;;;;;;;5130839;27;20099;-48
2023/08/04 01:23:17;;;;;;;0.15;0.15;;;;;;;;;;5130162;28;20054;-49
2023/08/04 01:25:43;;;;;;;0.20;0.20;;;;;;;;;;5116937;28;20052;-51
2023/08/04 01:28:09;;;;;;;0.10;0.10;;;;;;;;;;5130660;28;20472;-51
2023/08/04 01:30:36;;;;;;;0.10;0.10;;;;;;;;;;5130430;28;20051;-51
2023/08/04 01:33:02;;;;;;;0.10;0.10;;;;;;;;;;5131066;28;20051;-47
2023/08/04 01:35:28;;;;;;;0.10;0.10;;;;;;;;;;5129271;28;20487;-48
2023/08/04 01:37:54;;;;;;;0.10;0.10;;;;;;;;;;5129785;27;20051;-48
2023/08/04 01:40:20;;;;;;;0.10;0.10;;;;;;;;;;5111981;28;20054;-49
2023/08/04 01:42:45;;;;;;;0.10;0.10;;;;;;;;;;5130586;28;20053;-51
2023/08/04 01:45:11;;;;;;;0.17;0.17;;;;;;;;;;5129344;27;20535;-49
2023/08/04 01:47:38;;;;;;;0.10;0.10;;;;;;;;;;5129969;28;20053;-50
2023/08/04 01:50:06;;;;;;;0.10;0.10;;;;;;;;;;5130033;28;20087;-49
2023/08/04 01:52:32;;;;;;;0.13;0.13;;;;;;;;;;5130170;28;20047;-47
2023/08/04 01:54:58;;;;;;;0.10;0.10;;;;;;;;;;5129765;27;20051;-47
2023/08/04 01:57:24;;;;;;;0.10;0.10;;;;;;;;;;5129844;28;20054;-48
2023/08/04 01:59:49;;;;;;;0.10;0.10;;;;;;;;;;5129363;28;20039;-48
2023/08/04 02:02:15;;;;;;;0.10;0.10;;;;;;;;;;5129935;28;20050;-48
2023/08/04 02:04:40;;;;;;;0.10;0.10;;;;;;;;;;5129086;28;20047;-47
2023/08/04 02:07:06;;;;;;;0.20;0.20;;;;;;;;;;5129572;28;20062;-49
2023/08/04 02:09:32;;;;;;;0.13;0.13;;;;;;;;;;5129727;28;20050;-48
2023/08/04 02:11:58;;;;;;;0.10;0.10;;;;;;;;;;5128719;28;20058;-47
2023/08/04 02:14:23;;;;;;;0.10;0.10;;;;;;;;;;5130055;28;20122;-47
2023/08/04 02:16:49;;;;;;;0.10;0.10;;;;;;;;;;5128832;28;20039;-47
2023/08/04 02:19:14;;;;;;;0.20;0.20;;;;;;;;;;5140973;27;20054;-47
2023/08/04 02:21:40;;;;;;;0.10;0.10;;;;;;;;;;5133606;27;20483;-47
2023/08/04 02:24:06;;;;;;;0.10;0.10;;;;;;;;;;5128807;28;20461;-48
2023/08/04 02:26:31;;;;;;;0.20;0.20;;;;;;;;;;5129305;28;20039;-47
2023/08/04 02:28:57;;;;;;;0.20;0.20;;;;;;;;;;5129061;27;20063;-47
2023/08/04 02:31:24;;;;;;;0.20;0.20;;;;;;;;;;5129082;28;20043;-47
2023/08/04 02:33:50;;;;;;;0.10;0.10;;;;;;;;;;5129082;28;20043;-47
2023/08/04 02:36:16;;;;;;;0.20;0.20;;;;;;;;;;5128585;28;20535;-47
2023/08/04 02:38:42;;;;;;;0.20;0.20;;;;;;;;;;5129226;28;20134;-47
2023/08/04 02:41:09;;;;;;;0.15;0.15;;;;;;;;;;5128555;28;20134;-61
2023/08/04 02:43:34;;;;;;;0.20;0.20;;;;;;;;;;5128494;28;20465;-61
2023/08/04 02:46:00;;;;;;;0.20;0.20;;;;;;;;;;5129148;28;20492;-62
2023/08/04 02:48:25;;;;;;;0.20;0.20;;;;;;;;;;5128874;28;20472;-61
2023/08/04 02:51:08;;;;;;;0.20;0.20;;;;;;;;;;5129292;28;20491;-41
2023/08/04 02:53:34;;;;;;;0.20;0.20;;;;;;;;;;5128709;28;20051;-43
2023/08/04 02:56:00;;;;;;;0.10;0.10;;;;;;;;;;5128423;28;20043;-45
2023/08/04 02:58:26;;;;;;;0.10;0.10;;;;;;;;;;5128831;28;20043;-44
2023/08/04 03:00:51;;;;;;;0.10;0.10;;;;;;;;;;5127645;27;20427;-43
2023/08/04 03:03:17;;;;;;;0.10;0.10;;;;;;;;;;5128569;27;20543;-41
2023/08/04 03:05:43;;;;;;;0.15;0.15;;;;;;;;;;5127673;27;20049;-42
2023/08/04 03:08:08;;;;;;;0.10;0.10;;;;;;;;;;5127706;28;20054;-41
2023/08/04 03:10:34;;;;;;;0.10;0.10;;;;;;;;;;5129280;28;20259;-42
2023/08/04 03:12:59;;;;;;;0.20;0.20;;;;;;;;;;5128113;28;20531;-43
2023/08/04 03:15:25;;;;;;;0.10;0.10;;;;;;;;;;5125944;28;20483;-41
2023/08/04 03:17:50;;;;;;;0.20;0.20;;;;;;;;;;5122724;28;20058;-41
2023/08/04 03:20:16;;;;;;;0.20;0.20;;;;;;;;;;5127317;28;20138;-45
2023/08/04 03:22:42;;;;;;;0.10;0.10;;;;;;;;;;5128296;28;20081;-41
2023/08/04 03:25:09;;;;;;;0.10;0.10;;;;;;;;;;5127655;28;20047;-41
2023/08/04 03:27:35;;;;;;;0.10;0.10;;;;;;;;;;5127838;28;20047;-43
2023/08/04 03:30:01;;;;;;;0.10;0.10;;;;;;;;;;5128408;28;20043;-41
2023/08/04 03:32:26;;;;;;;0.10;0.10;;;;;;;;;;5127799;28;20406;-44
2023/08/04 03:34:52;;;;;;;0.10;0.10;;;;;;;;;;5128148;28;20120;-45
2023/08/04 03:37:17;;;;;;;0.10;0.10;;;;;;;;;;5128654;27;20059;-41
2023/08/04 03:39:43;;;;;;;0.10;0.10;;;;;;;;;;5128392;28;20119;-41
2023/08/04 03:42:08;;;;;;;0.10;0.10;;;;;;;;;;5127292;28;20047;-42
2023/08/04 03:44:34;;;;;;;0.20;0.20;;;;;;;;;;5128109;28;20150;-41
2023/08/04 03:47:00;;;;;;;0.10;0.10;;;;;;;;;;5128489;28;20051;-44
2023/08/04 03:49:25;;;;;;;0.20;0.20;;;;;;;;;;5129044;28;20437;-44
2023/08/04 03:51:51;;;;;;;0.20;0.20;;;;;;;;;;5127920;28;20058;-42
2023/08/04 03:54:16;;;;;;;0.10;0.10;;;;;;;;;;5127885;28;20062;-42
2023/08/04 03:56:42;;;;;;;0.10;0.10;;;;;;;;;;5128057;28;20055;-44
2023/08/04 03:59:11;;;;;;;0.20;0.20;;;;;;;;;;5127885;28;20043;-41
2023/08/04 04:01:37;;;;;;;0.13;0.13;;;;;;;;;;5127760;28;20476;-41
2023/08/04 04:04:02;;;;;;;0.20;0.20;;;;;;;;;;5127812;28;20055;-42
2023/08/04 04:06:28;;;;;;;0.10;0.10;;;;;;;;;;5127953;28;20059;-44
2023/08/04 04:08:54;;;;;;;0.20;0.20;;;;;;;;;;5127828;28;20494;-41
2023/08/04 04:11:20;;;;;;;0.10;0.10;;;;;;;;;;5128163;28;20044;-42
2023/08/04 04:13:45;;;;;;;0.10;0.10;;;;;;;;;;5127939;28;20079;-41
2023/08/04 04:16:11;;;;;;;0.20;0.20;;;;;;;;;;5124712;27;20068;-41
2023/08/04 04:18:36;;;;;;;0.20;0.20;;;;;;;;;;5131088;27;20050;-44
2023/08/04 04:21:02;;;;;;;0.20;0.20;;;;;;;;;;5130682;28;20063;-43
2023/08/04 04:23:28;;;;;;;0.10;0.10;;;;;;;;;;5130646;28;20054;-40
2023/08/04 04:25:53;;;;;;;0.20;0.20;;;;;;;;;;5130862;28;20134;-43
2023/08/04 04:28:19;;;;;;;0.20;0.20;;;;;;;;;;5130195;28;20146;-41
2023/08/04 04:30:45;;;;;;;0.10;0.10;;;;;;;;;;5130838;28;20047;-43
2023/08/04 04:33:10;;;;;;;0.20;0.20;;;;;;;;;;5130837;27;20082;-41
2023/08/04 04:35:36;;;;;;;0.20;0.20;;;;;;;;;;5130397;28;20350;-43
2023/08/04 04:38:01;;;;;;;0.10;0.10;;;;;;;;;;5131086;28;20051;-43
2023/08/04 04:40:27;;;;;;;0.20;0.20;;;;;;;;;;5130389;28;20092;-42
2023/08/04 04:42:53;;;;;;;0.20;0.20;;;;;;;;;;5130278;28;20091;-42
2023/08/04 04:45:18;;;;;;;0.10;0.10;;;;;;;;;;5129312;28;20073;-42
2023/08/04 04:47:43;;;;;;;0.13;0.13;;;;;;;;;;5128397;28;20053;-42
2023/08/04 04:50:09;;;;;;;0.20;0.20;;;;;;;;;;5130606;28;20546;-44
2023/08/04 04:52:36;;;;;;;0.17;0.17;;;;;;;;;;5130521;28;20130;-45
2023/08/04 04:55:02;;;;;;;0.10;0.10;;;;;;;;;;5130176;28;20053;-45
2023/08/04 04:57:29;;;;;;;0.20;0.20;;;;;;;;;;5130585;28;20219;-42
2023/08/04 04:59:54;;;;;;;0.13;0.13;;;;;;;;;;5130354;28;20039;-43
2023/08/04 05:02:20;;;;;;;0.10;0.10;;;;;;;;;;5131122;28;20043;-44
2023/08/04 05:04:46;;;;;;;0.10;0.10;;;;;;;;;;5128752;28;20039;-42
2023/08/04 05:07:11;;;;;;;0.20;0.20;;;;;;;;;;5130295;28;20047;-44
2023/08/04 05:09:38;;;;;;;0.20;0.20;;;;;;;;;;5129182;28;20194;-44
2023/08/04 05:12:04;;;;;;;0.20;0.20;;;;;;;;;;5129127;28;20065;-44
2023/08/04 05:14:30;;;;;;;0.10;0.10;;;;;;;;;;5129446;28;20475;-45
2023/08/04 05:16:55;;;;;;;0.10;0.10;;;;;;;;;;5124916;27;20549;-42
2023/08/04 05:19:21;;;;;;;0.10;0.10;;;;;;;;;;5129794;28;20044;-61
2023/08/04 05:21:46;;;;;;;0.10;0.10;;;;;;;;;;5128229;28;20499;-61
2023/08/04 05:24:12;;;;;;;0.10;0.10;;;;;;;;;;5127313;28;20383;-62
2023/08/04 05:26:38;;;;;;;0.10;0.10;;;;;;;;;;5123449;28;20476;-61
2023/08/04 05:29:03;;;;;;;0.20;0.20;;;;;;;;;;5127743;27;20051;-61
2023/08/04 05:31:29;;;;;;;0.10;0.10;;;;;;;;;;5127175;28;20066;-61
2023/08/04 05:33:56;;;;;;;0.20;0.20;;;;;;;;;;5126376;28;20343;-61
2023/08/04 05:36:23;;;;;;;0.10;0.10;;;;;;;;;;5127936;28;20074;-61
2023/08/04 05:38:48;;;;;;;0.17;0.17;;;;;;;;;;5129791;28;20099;-61
2023/08/04 05:41:14;;;;;;;0.20;0.20;;;;;;;;;;5125720;27;20051;-61
2023/08/04 05:43:39;;;;;;;0.20;0.20;;;;;;;;;;5120528;28;20070;-61
2023/08/04 05:46:05;;;;;;;0.17;0.17;;;;;;;;;;5115515;27;20047;-61
2023/08/04 05:48:32;;;;;;;0.20;0.20;;;;;;;;;;5118482;28;20476;-61
2023/08/04 05:50:58;;;;;;;0.20;0.20;;;;;;;;;;5112314;28;20096;-61
2023/08/04 05:53:24;;;;;;;0.10;0.10;;;;;;;;;;5103408;27;20458;-61
2023/08/04 05:55:49;;;;;;;0.10;0.10;;;;;;;;;;5109041;27;21246;-61
2023/08/04 05:58:15;;;;;;;0.10;0.10;;;;;;;;;;5106368;27;20095;-61
2023/08/04 06:00:40;;;;;;;0.10;0.10;;;;;;;;;;5098390;27;20070;-61
2023/08/04 06:03:06;;;;;;;0.10;0.10;;;;;;;;;;5107107;27;20063;-62
2023/08/04 06:05:32;;;;;;;0.17;0.17;;;;;;;;;;5114108;27;20995;-61
2023/08/04 06:07:57;;;;;;;0.10;0.10;;;;;;;;;;5106763;27;20181;-61
2023/08/04 06:10:23;;;;;;;0.10;0.10;;;;;;;;;;5106211;27;20047;-61
2023/08/04 06:12:49;;;;;;;0.20;0.20;;;;;;;;;;5117615;27;20046;-61
2023/08/04 06:15:15;;;;;;;0.13;0.13;;;;;;;;;;5120936;27;20612;-61
2023/08/04 06:17:41;;;;;;;0.10;0.10;;;;;;;;;;5115527;27;20502;-61
2023/08/04 06:20:07;;;;;;;0.20;0.20;;;;;;;;;;5116185;27;20048;-61
2023/08/04 06:22:33;;;;;;;0.10;0.10;;;;;;;;;;5094040;27;20690;-61
2023/08/04 06:24:59;;;;;;;0.10;0.10;;;;;;;;;;5113795;27;20043;-61
2023/08/04 06:27:24;;;;;;;0.20;0.20;;;;;;;;;;5116064;27;20168;-61
2023/08/04 06:29:50;;;;;;;0.10;0.10;;;;;;;;;;5116724;27;20399;-61
2023/08/04 06:32:16;;;;;;;0.10;0.10;;;;;;;;;;5112296;27;20047;-61
2023/08/04 06:34:41;;;;;;;0.10;0.10;;;;;;;;;;5110489;27;20483;-61
2023/08/04 06:37:07;;;;;;;0.10;0.10;;;;;;;;;;5121542;27;20066;-60
2023/08/04 06:39:32;;;;;;;0.10;0.10;;;;;;;;;;5118435;27;20445;-61
2023/08/04 06:41:58;;;;;;;0.20;0.20;;;;;;;;;;5118170;27;20544;-61
2023/08/04 06:44:24;;;;;;;0.10;0.10;;;;;;;;;;5116780;27;20047;-60
2023/08/04 06:46:49;;;;;;;0.10;0.10;;;;;;;;;;5113323;27;20077;-61
2023/08/04 06:49:15;;;;;;;0.20;0.20;;;;;;;;;;5112912;27;20104;-61
2023/08/04 06:51:40;;;;;;;0.13;0.13;;;;;;;;;;5114372;27;20085;-61
2023/08/04 06:54:06;;;;;;;0.10;0.10;;;;;;;;;;5118824;27;20039;-60
2023/08/04 06:56:32;;;;;;;0.20;0.20;;;;;;;;;;5115000;27;20054;-61
2023/08/04 06:58:57;;;;;;;0.10;0.10;;;;;;;;;;5119511;27;20043;-61
2023/08/04 07:01:23;;;;;;;0.10;0.10;;;;;;;;;;5112137;27;20052;-61
2023/08/04 07:03:48;;;;;;;0.10;0.10;;;;;;;;;;5115673;27;20536;-61
2023/08/04 07:06:14;;;;;;;0.13;0.13;;;;;;;;;;5108136;27;20043;-61
2023/08/04 07:08:40;;;;;;;0.13;0.13;;;;;;;;;;5109745;27;21549;-61
2023/08/04 07:11:14;;;;;;;0.20;0.20;;;;;;;;;;5116463;27;20515;-61
2023/08/04 07:13:39;;;;;;;0.20;0.20;;;;;;;;;;5118323;27;20050;-60
2023/08/04 07:16:05;;;;;;;0.10;0.10;;;;;;;;;;5123481;27;20047;-61
2023/08/04 07:18:30;;;;;;;0.10;0.10;;;;;;;;;;5113942;27;20035;-61
2023/08/04 07:21:12;;;;;;;0.10;0.10;;;;;;;;;;5117315;27;20648;-61
2023/08/04 07:23:38;;;;;;;0.15;0.15;;;;;;;;;;5122279;27;20035;-61
2023/08/04 07:26:04;;;;;;;0.20;0.20;;;;;;;;;;5118496;27;20050;-61
2023/08/04 07:28:30;;;;;;;0.20;0.20;;;;;;;;;;5110607;27;20051;-61
2023/08/04 07:30:56;;;;;;;0.10;0.10;;;;;;;;;;5115937;28;20045;-61
2023/08/04 07:33:22;;;;;;;0.10;0.10;;;;;;;;;;5118755;27;20043;-61
2023/08/04 07:35:51;;;;;;;0.10;0.10;;;;;;;;;;5122431;27;20083;-61
2023/08/04 07:38:17;;;;;;;0.10;0.10;;;;;;;;;;5114562;27;20039;-61
2023/08/04 07:40:43;;;;;;;0.20;0.20;;;;;;;;;;5123653;27;20431;-61
2023/08/04 07:43:11;;;;;;;0.20;0.20;;;;;;;;;;5122023;27;20100;-61
2023/08/04 07:45:37;;;;;;;0.20;0.20;;;;;;;;;;5122277;27;20070;-61
2023/08/04 07:48:03;;;;;;;0.15;0.15;;;;;;;;;;5118352;27;20047;-61
2023/08/04 07:50:28;;;;;;;0.20;0.20;;;;;;;;;;5116652;28;20061;-61
2023/08/04 07:52:54;;;;;;;0.20;0.20;;;;;;;;;;5117641;27;20047;-61
2023/08/04 07:55:19;;;;;;;0.10;0.10;;;;;;;;;;5115026;27;20146;-62
2023/08/04 07:57:45;;;;;;;0.20;0.20;;;;;;;;;;5111431;27;20043;-61
2023/08/04 08:00:11;;;;;;;0.10;0.10;;;;;;;;;;5127161;27;20541;-61
2023/08/04 08:02:36;;;;;;;0.20;0.20;;;;;;;;;;5122094;27;20058;-61
2023/08/04 08:05:02;;;;;;;0.20;0.20;;;;;;;;;;5125554;28;20055;-61
2023/08/04 08:07:28;;;;;;;0.10;0.10;;;;;;;;;;5128010;28;20735;-52
2023/08/04 08:10:09;;;;;;;0.20;0.20;;;;;;;;;;5123311;28;20051;-61
2023/08/04 08:12:35;;;;;;;0.20;0.20;;;;;;;;;;5121528;27;21291;-61
2023/08/04 08:15:00;;;;;;;0.20;0.20;;;;;;;;;;5115280;27;20036;-61
2023/08/04 08:17:26;;;;;;;0.20;0.20;;;;;;;;;;5118717;27;20046;-58
2023/08/04 08:19:51;;;;;;;0.10;0.10;;;;;;;;;;5125649;27;20369;-56
2023/08/04 08:22:17;;;;;;;0.15;0.15;;;;;;;;;;5125533;27;20158;-58
2023/08/04 08:24:42;;;;;;;0.10;0.10;;;;;;;;;;5120197;27;20505;-61
2023/08/04 08:27:08;;;;;;;0.10;0.10;;;;;;;;;;5121105;27;20068;-61
2023/08/04 08:29:35;;;;;;;0.10;0.10;;;;;;;;;;5123879;28;20081;-61
2023/08/04 08:32:01;;;;;;;0.13;0.13;;;;;;;;;;5106771;27;20078;-60
2023/08/04 08:34:26;;;;;;;0.10;0.10;;;;;;;;;;5120977;27;20075;-60
2023/08/04 08:36:52;;;;;;;0.15;0.15;;;;;;;;;;5115812;27;20082;-60
2023/08/04 08:39:17;;;;;;;0.10;0.10;;;;;;;;;;5113048;27;20107;-60
2023/08/04 08:41:43;;;;;;;0.13;0.13;;;;;;;;;;5117339;27;20119;-60
2023/08/04 08:44:09;;;;;;;0.20;0.20;;;;;;;;;;5113702;27;20553;-61
2023/08/04 08:46:35;;;;;;;0.20;0.20;;;;;;;;;;5117467;27;20090;-60
2023/08/04 08:49:02;;;;;;;0.15;0.15;;;;;;;;;;5116329;27;20039;-61
2023/08/04 08:51:29;;;;;;;0.10;0.10;;;;;;;;;;5118802;28;20103;-61
2023/08/04 08:53:56;;;;;;;0.10;0.10;;;;;;;;;;5123021;28;20526;-62
2023/08/04 08:56:21;;;;;;;0.10;0.10;;;;;;;;;;5123779;27;20539;-61
2023/08/04 08:58:47;;;;;;;0.10;0.10;;;;;;;;;;5121854;27;20524;-61
2023/08/04 09:01:13;;;;;;;0.20;0.20;;;;;;;;;;5116641;27;20354;-61
2023/08/04 09:03:38;;;;;;;0.10;0.10;;;;;;;;;;5130348;27;20076;-61
2023/08/04 09:06:04;;;;;;;0.20;0.20;;;;;;;;;;5125933;27;20039;-61
2023/08/04 09:08:31;;;;;;;0.20;0.20;;;;;;;;;;5125376;28;20098;-61
2023/08/04 09:10:57;;;;;;;0.10;0.10;;;;;;;;;;5123898;27;20139;-61
2023/08/04 09:13:23;;;;;;;0.10;0.10;;;;;;;;;;5122111;27;20047;-61
2023/08/04 09:15:49;;;;;;;0.20;0.20;;;;;;;;;;5110631;27;20410;-61
2023/08/04 09:18:31;;;;;;;0.15;0.15;;;;;;;;;;5115765;27;20047;-61
2023/08/04 09:20:58;;;;;;;0.10;0.10;;;;;;;;;;5122415;28;20058;-51
2023/08/04 09:23:25;;;;;;;0.20;0.20;;;;;;;;;;5123344;28;20376;-52
2023/08/04 09:25:51;;;;;;;0.10;0.10;;;;;;;;;;5120052;27;20047;-51
2023/08/04 09:28:17;;;;;;;0.20;0.20;;;;;;;;;;5111194;27;20057;-48
2023/08/04 09:30:58;;;;;;;0.10;0.10;;;;;;;;;;5117800;27;20047;-51
2023/08/04 09:33:24;;;;;;;0.10;0.10;;;;;;;;;;5115662;27;23900;-51
2023/08/04 09:35:59;;;;;;;0.13;0.13;;;;;;;;;;5109697;27;20043;-52
2023/08/04 09:38:24;;;;;;;0.10;0.10;;;;;;;;;;5111373;27;20043;-49
2023/08/04 09:40:58;;;;;;;0.10;0.10;;;;;;;;;;5113636;27;20050;-52
2023/08/04 09:43:24;;;;;;;0.10;0.10;;;;;;;;;;5119444;27;20055;-49
2023/08/04 09:45:53;;;;;;;0.10;0.10;;;;;;;;;;5112758;27;20091;-50
2023/08/04 09:48:24;;;;;;;0.10;0.10;;;;;;;;;;5110546;27;20081;-51
2023/08/04 09:50:50;;;;;;;0.10;0.10;;;;;;;;;;5113172;27;20477;-50
2023/08/04 09:53:15;;;;;;;0.20;0.20;;;;;;;;;;5115816;27;20058;-50
2023/08/04 09:55:42;;;;;;;0.10;0.10;;;;;;;;;;5121937;27;20043;-49
2023/08/04 09:58:08;;;;;;;0.10;0.10;;;;;;;;;;5117994;28;20150;-52
2023/08/04 10:00:35;;;;;;;0.10;0.10;;;;;;;;;;5118032;27;20066;-48
2023/08/04 10:03:01;;;;;;;0.10;0.10;;;;;;;;;;5112291;27;20058;-49
2023/08/04 10:05:26;;;;;;;0.17;0.17;;;;;;;;;;5112601;27;20055;-51
2023/08/04 10:07:52;;;;;;;0.10;0.10;;;;;;;;;;5117358;27;20043;-51
2023/08/04 10:10:18;;;;;;;0.20;0.20;;;;;;;;;;5121712;28;20062;-51
2023/08/04 10:12:43;;;;;;;0.10;0.10;;;;;;;;;;5115342;27;20419;-52
2023/08/04 10:15:09;;;;;;;0.10;0.10;;;;;;;;;;5119126;27;20480;-52
2023/08/04 10:17:34;;;;;;;0.10;0.10;;;;;;;;;;5112412;27;20095;-52
2023/08/04 10:20:02;;;;;;;0.30;0.30;;;;;;;;;;5121529;27;20043;-52
2023/08/04 10:22:28;;;;;;;0.20;0.20;;;;;;;;;;5117839;27;20051;-50
2023/08/04 10:24:54;;;;;;;0.20;0.20;;;;;;;;;;5119538;27;20354;-53
2023/08/04 10:27:20;;;;;;;0.10;0.10;;;;;;;;;;5125314;27;20143;-53
2023/08/04 10:30:00;;;;;;;0.10;0.10;;;;;;;;;;5126667;28;20039;-53
2023/08/04 10:32:33;;;;;;;0.20;0.20;;;;;;;;;;5121125;27;20415;-52
2023/08/04 10:34:59;;;;;;;0.20;0.20;;;;;;;;;;5109785;27;20052;-51
2023/08/04 10:37:24;;;;;;;0.10;0.10;;;;;;;;;;5117881;27;20378;-51
2023/08/04 10:39:57;;;;;;;0.20;0.20;;;;;;;;;;5118822;28;20039;-52
2023/08/04 10:42:26;;;;;;;0.10;0.10;;;;;;;;;;5116108;27;20074;-51
2023/08/04 10:44:53;;;;;;;0.20;0.20;;;;;;;;;;5123911;28;20035;-54
2023/08/04 10:47:38;;;;;;;0.20;0.20;;;;;;;;;;5109773;27;20447;-53
2023/08/04 10:50:17;;;;;;;0.20;0.20;;;;;;;;;;5116975;28;20413;-54
2023/08/04 10:52:43;;;;;;;0.15;0.15;;;;;;;;;;5119123;28;20161;-50
2023/08/04 10:55:11;;;;;;;0.20;0.20;;;;;;;;;;5116659;27;20051;-52
2023/08/04 10:57:37;;;;;;;0.10;0.10;;;;;;;;;;5119128;28;20092;-49
2023/08/04 11:00:05;;;;;;;0.10;0.10;;;;;;;;;;5117380;27;20547;-52
2023/08/04 11:02:31;;;;;;;0.20;0.20;;;;;;;;;;5115661;27;20115;-52
2023/08/04 11:04:57;;;;;;;0.20;0.20;;;;;;;;;;5124647;27;20138;-51
2023/08/04 11:07:24;;;;;;;0.13;0.13;;;;;;;;;;5121379;28;20065;-50
2023/08/04 11:09:50;;;;;;;0.17;0.17;;;;;;;;;;5115167;27;20328;-53
2023/08/04 11:12:16;;;;;;;0.10;0.10;;;;;;;;;;5116793;28;20513;-51
2023/08/04 11:14:42;;;;;;;0.20;0.20;;;;;;;;;;5118581;27;20172;-51
2023/08/04 11:17:11;;;;;;;0.20;0.20;;;;;;;;;;5122999;27;20073;-49
2023/08/04 11:19:37;;;;;;;0.20;0.20;;;;;;;;;;5121844;28;20125;-52
2023/08/04 11:22:06;;;;;;;0.10;0.10;;;;;;;;;;5120031;28;20463;-54
2023/08/04 11:24:32;;;;;;;0.10;0.10;;;;;;;;;;5113573;28;20161;-55
2023/08/04 11:26:57;;;;;;;0.20;0.20;;;;;;;;;;5119727;27;20487;-58
2023/08/04 11:29:24;;;;;;;0.20;0.20;;;;;;;;;;5114856;27;20534;-57
2023/08/04 11:31:50;;;;;;;0.20;0.20;;;;;;;;;;5120704;27;20067;-47
2023/08/04 11:34:16;;;;;;;0.20;0.20;;;;;;;;;;5118467;27;20051;-51
2023/08/04 11:36:43;;;;;;;0.10;0.10;;;;;;;;;;5099810;28;20503;-51
2023/08/04 11:39:08;;;;;;;0.20;0.20;;;;;;;;;;5103141;28;20055;-51
2023/08/04 11:41:34;;;;;;;0.17;0.17;;;;;;;;;;5100290;28;20101;-52
2023/08/04 11:44:00;;;;;;;0.10;0.10;;;;;;;;;;5104817;28;20039;-52
2023/08/04 11:46:27;;;;;;;0.10;0.10;;;;;;;;;;5089644;28;20059;-50
2023/08/04 11:48:53;;;;;;;0.20;0.20;;;;;;;;;;5098063;28;20378;-51
2023/08/04 11:51:18;;;;;;;0.20;0.20;;;;;;;;;;5101046;28;20131;-52
2023/08/04 11:53:45;;;;;;;0.10;0.10;;;;;;;;;;5098634;28;20112;-52
2023/08/04 11:56:10;;;;;;;0.10;0.10;;;;;;;;;;5098916;28;20043;-52
2023/08/04 11:58:54;;;;;;;0.20;0.20;;;;;;;;;;5104248;28;20055;-51
2023/08/04 12:01:24;;;;;;;0.10;0.10;;;;;;;;;;5103694;28;20434;-50
2023/08/04 12:03:50;;;;;;;0.20;0.20;;;;;;;;;;5100574;28;20482;-51
2023/08/04 12:06:17;;;;;;;0.20;0.20;;;;;;;;;;5090680;28;20051;-52
2023/08/04 12:08:51;;;;;;;0.20;0.20;;;;;;;;;;5099536;28;20047;-48
2023/08/04 12:11:17;;;;;;;0.15;0.15;;;;;;;;;;5102058;28;20082;-47
2023/08/04 12:13:42;;;;;;;0.17;0.17;;;;;;;;;;5103137;28;20128;-47
2023/08/04 12:16:08;;;;;;;0.10;0.10;;;;;;;;;;5087893;28;20428;-49
2023/08/04 12:18:34;;;;;;;0.10;0.10;;;;;;;;;;5102844;28;20062;-48
2023/08/04 12:21:00;;;;;;;0.20;0.20;;;;;;;;;;5099965;28;20040;-48
2023/08/04 12:23:25;;;;;;;0.20;0.20;;;;;;;;;;5095751;28;20096;-49
2023/08/04 12:25:51;;;;;;;0.20;0.20;;;;;;;;;;5103687;28;20086;-47
2023/08/04 12:28:17;;;;;;;0.15;0.15;;;;;;;;;;5097763;28;20105;-50
2023/08/04 12:30:47;;;;;;;0.10;0.10;;;;;;;;;;5099303;28;20082;-52
2023/08/04 12:33:33;;;;;;;0.10;0.10;;;;;;;;;;5090875;28;20058;-48
2023/08/04 12:35:58;;;;;;;0.10;0.10;;;;;;;;;;5101215;28;20456;-49
2023/08/04 12:38:24;;;;;;;0.22;0.20;;;;;;;;;;5104244;28;20513;-47
2023/08/04 12:40:49;;;;;;;0.10;0.10;;;;;;;;;;5097111;28;20036;-48
2023/08/04 12:43:15;;;;;;;0.10;0.10;;;;;;;;;;5107802;28;20134;-48
2023/08/04 12:45:41;;;;;;;0.10;0.10;;;;;;;;;;5113400;28;20126;-49
2023/08/04 12:48:06;;;;;;;0.20;0.20;;;;;;;;;;5105471;28;20381;-47
2023/08/04 12:50:32;;;;;;;0.20;0.20;;;;;;;;;;5098043;28;20043;-49
2023/08/04 12:52:57;;;;;;;0.20;0.20;;;;;;;;;;5106569;28;20463;-48
2023/08/04 12:55:23;;;;;;;0.20;0.20;;;;;;;;;;5105459;28;20112;-48
2023/08/04 12:57:49;;;;;;;0.17;0.17;;;;;;;;;;5106454;28;20486;-48
2023/08/04 13:00:15;;;;;;;0.20;0.20;;;;;;;;;;5105547;28;20109;-47
2023/08/04 13:02:40;;;;;;;0.20;0.20;;;;;;;;;;5108029;28;20251;-47
2023/08/04 13:05:06;;;;;;;0.10;0.10;;;;;;;;;;5108722;28;20109;-46
2023/08/04 13:07:32;;;;;;;0.10;0.10;;;;;;;;;;5109604;28;20142;-47
2023/08/04 13:09:57;;;;;;;0.20;0.20;;;;;;;;;;5107645;28;20074;-47
2023/08/04 13:12:23;;;;;;;0.10;0.10;;;;;;;;;;5108601;28;20464;-48
2023/08/04 13:14:48;;;;;;;0.10;0.10;;;;;;;;;;5111472;28;20419;-48
2023/08/04 13:17:14;;;;;;;0.20;0.20;;;;;;;;;;5108013;28;20052;-47
2023/08/04 13:19:40;;;;;;;0.10;0.10;;;;;;;;;;5109080;28;20039;-47
2023/08/04 13:22:05;;;;;;;0.10;0.10;;;;;;;;;;5106145;28;20499;-48
2023/08/04 13:24:31;;;;;;;0.10;0.10;;;;;;;;;;5107466;28;20040;-46
2023/08/04 13:26:56;;;;;;;0.20;0.20;;;;;;;;;;5106248;28;20040;-47
2023/08/04 13:29:22;;;;;;;0.20;0.20;;;;;;;;;;5103386;28;20453;-61
2023/08/04 13:31:47;;;;;;;0.10;0.10;;;;;;;;;;5106013;28;20377;-61
2023/08/04 13:34:14;;;;;;;0.10;0.10;;;;;;;;;;5108092;28;20051;-62
2023/08/04 13:36:39;;;;;;;0.15;0.15;;;;;;;;;;5107900;28;20043;-62
2023/08/04 13:39:05;;;;;;;0.10;0.10;;;;;;;;;;5108279;28;20062;-61
2023/08/04 13:41:30;;;;;;;0.17;0.17;;;;;;;;;;5108541;28;20504;-61
2023/08/04 13:43:56;;;;;;;0.20;0.20;;;;;;;;;;5108064;28;20092;-61
2023/08/04 13:46:22;;;;;;;0.10;0.10;;;;;;;;;;5110131;28;20052;-61
2023/08/04 13:48:48;;;;;;;0.10;0.10;;;;;;;;;;5109820;28;20493;-61
2023/08/04 13:51:14;;;;;;;0.10;0.10;;;;;;;;;;5109312;28;20058;-61
2023/08/04 13:53:52;;;;;;;0.20;0.20;;;;;;;;;;5109883;28;20097;-61
2023/08/04 13:56:17;;;;;;;0.20;0.20;;;;;;;;;;5109840;28;20087;-61
2023/08/04 13:58:43;;;;;;;0.17;0.17;;;;;;;;;;5109503;28;20094;-62
2023/08/04 14:01:09;;;;;;;0.10;0.10;;;;;;;;;;5108640;28;20054;-61
2023/08/04 14:03:34;;;;;;;0.10;0.10;;;;;;;;;;5106880;28;20090;-61
2023/08/04 14:06:01;;;;;;;0.10;0.10;;;;;;;;;;5090317;28;20047;-61
2023/08/04 14:08:27;;;;;;;0.20;0.20;;;;;;;;;;5092757;28;20060;-61
2023/08/04 14:10:53;;;;;;;0.20;0.20;;;;;;;;;;5107844;28;20131;-62
2023/08/04 14:13:19;;;;;;;0.20;0.20;;;;;;;;;;5109214;28;20048;-61
2023/08/04 14:15:45;;;;;;;0.13;0.13;;;;;;;;;;5103733;28;20040;-61
2023/08/04 14:18:10;;;;;;;0.10;0.10;;;;;;;;;;5107658;28;20051;-61
2023/08/04 14:20:36;;;;;;;0.10;0.10;;;;;;;;;;5099822;28;20044;-61
2023/08/04 14:23:02;;;;;;;0.10;0.10;;;;;;;;;;5109027;28;20051;-61
2023/08/04 14:25:28;;;;;;;0.10;0.10;;;;;;;;;;5107251;28;20046;-61
2023/08/04 14:27:53;;;;;;;0.10;0.10;;;;;;;;;;5108898;28;20047;-61
2023/08/04 14:30:19;;;;;;;0.10;0.10;;;;;;;;;;5109060;28;20138;-60
2023/08/04 14:32:45;;;;;;;0.10;0.10;;;;;;;;;;5101406;28;20488;-61
2023/08/04 14:35:10;;;;;;;0.10;0.10;;;;;;;;;;5108980;28;20055;-61
2023/08/04 14:37:36;;;;;;;0.10;0.10;;;;;;;;;;5108113;28;20039;-61